Time;durP1;ratioP1;P1;durP2;ratioP2;P2;SDS_P1;SDS_P2;PMS_P1;PMS_P2;Temp;Humidity;BMP_temperature;BMP_pressure;BME280_temperature;BME280_humidity;BME280_pressure;Samples;Min_cycle;Max_cycle;Signal;HPM_P1;HPM_P2
2022/05/07 00:00:56;;;;;;;9.60;5.20;;;;;;;11.25;73.21;101518.26;105778;1287;62031;-86
2022/05/07 00:03:23;;;;;;;6.60;4.70;;;;;;;11.22;72.69;101516.55;106883;1287;75779;-84
2022/05/07 00:05:49;;;;;;;8.00;5.00;;;;;;;11.19;72.89;101517.94;106958;1287;59752;-84
2022/05/07 00:08:16;;;;;;;9.60;5.20;;;;;;;11.16;72.70;101517.71;107042;1287;73216;-88
2022/05/07 00:10:43;;;;;;;8.00;5.40;;;;;;;11.13;72.98;101514.35;106725;1288;61241;-84
2022/05/07 00:13:10;;;;;;;7.50;5.10;;;;;;;11.10;73.39;101513.27;107024;1287;60611;-83
2022/05/07 00:15:36;;;;;;;6.20;4.00;;;;;;;11.07;73.01;101515.14;106911;1287;77401;-83
2022/05/07 00:18:06;;;;;;;6.50;4.50;;;;;;;11.02;73.18;101514.02;107090;1287;60191;-82
2022/05/07 00:20:34;;;;;;;9.00;5.00;;;;;;;10.97;73.22;101515.42;107111;1287;71820;-83
2022/05/07 00:23:01;;;;;;;9.60;5.20;;;;;;;10.92;73.22;101513.84;105951;1288;63851;-83
2022/05/07 00:25:29;;;;;;;8.20;5.80;;;;;;;10.87;73.42;101514.20;104877;1288;62041;-84
2022/05/07 00:27:55;;;;;;;8.70;4.80;;;;;;;10.80;73.50;101515.02;105004;1287;75789;-84
2022/05/07 00:30:22;;;;;;;6.80;5.10;;;;;;;10.74;73.77;101507.91;104758;1287;62196;-83
2022/05/07 00:32:49;;;;;;;6.50;4.90;;;;;;;10.69;74.16;101508.25;104936;1287;73044;-83
2022/05/07 00:35:16;;;;;;;12.20;6.50;;;;;;;10.65;74.38;101506.73;104977;1287;62402;-84
2022/05/07 00:37:43;;;;;;;10.20;5.00;;;;;;;10.61;74.44;101503.48;104972;1287;62067;-84
2022/05/07 00:40:10;;;;;;;7.50;5.10;;;;;;;10.60;75.09;101500.86;105079;1287;77177;-82
2022/05/07 00:42:38;;;;;;;7.90;4.70;;;;;;;10.57;75.04;101503.59;105037;1287;60072;-82
2022/05/07 00:45:05;;;;;;;6.90;4.60;;;;;;;10.54;75.03;101505.28;105016;1288;73302;-83
2022/05/07 00:47:32;;;;;;;8.40;4.50;;;;;;;10.51;74.99;101504.05;105102;1287;62980;-83
2022/05/07 00:52:47;;;;;;;8.00;5.10;;;;;;;10.46;75.38;101503.77;105126;1287;77578;-83
2022/05/07 00:55:14;;;;;;;7.80;5.80;;;;;;;10.43;75.41;101498.81;106328;1288;71586;-84
2022/05/07 00:57:41;;;;;;;8.70;5.90;;;;;;;10.40;75.55;101494.68;105069;1287;71977;-83
2022/05/07 01:00:09;;;;;;;8.80;6.00;;;;;;;10.37;75.95;101495.02;105205;1287;63133;-84
2022/05/07 01:02:37;;;;;;;6.60;4.70;;;;;;;10.33;76.16;101494.83;105223;1287;61989;-84
2022/05/07 01:05:08;;;;;;;10.20;5.20;;;;;;;10.30;76.29;101496.08;105070;1287;75421;-83
2022/05/07 01:07:34;;;;;;;7.20;5.30;;;;;;;10.26;76.43;101492.95;104867;1287;71678;-83
2022/05/07 01:10:06;;;;;;;7.20;5.30;;;;;;;10.21;76.35;101490.31;104862;1288;73784;-83
2022/05/07 01:12:33;;;;;;;7.20;5.20;;;;;;;10.16;76.70;101489.77;105189;1287;62141;-83
2022/05/07 01:15:00;;;;;;;9.30;5.50;;;;;;;10.12;77.30;101491.42;104959;1288;62948;-83
2022/05/07 01:17:32;;;;;;;9.90;5.80;;;;;;;10.10;77.72;101489.18;105231;1287;75258;-83
2022/05/07 01:19:59;;;;;;;7.10;5.70;;;;;;;10.07;77.88;101489.64;105169;1287;71256;-83
2022/05/07 01:22:30;;;;;;;8.50;5.70;;;;;;;10.05;77.93;101489.16;105131;1287;72790;-83
2022/05/07 01:24:57;;;;;;;8.70;5.50;;;;;;;10.04;78.22;101491.53;105278;1286;63297;-83
2022/05/07 01:27:24;;;;;;;11.80;6.10;;;;;;;10.04;78.49;101489.61;105305;1287;62191;-85
2022/05/07 01:29:50;;;;;;;7.80;5.30;;;;;;;10.06;79.48;101486.88;105323;1287;61913;-82
2022/05/07 01:32:18;;;;;;;9.10;5.50;;;;;;;10.10;79.62;101484.41;105539;1286;60645;-83
2022/05/07 01:34:44;;;;;;;8.80;5.80;;;;;;;10.12;79.30;101481.83;105556;1286;74055;-83
2022/05/07 01:37:11;;;;;;;9.00;5.10;;;;;;;10.15;79.31;101483.35;105322;1287;62123;-83
2022/05/07 01:39:37;;;;;;;7.40;4.70;;;;;;;10.17;79.03;101485.39;105444;1287;62330;-84
2022/05/07 01:42:04;;;;;;;7.80;4.70;;;;;;;10.19;78.87;101484.53;106061;1287;62103;-82
2022/05/07 01:44:30;;;;;;;8.60;4.10;;;;;;;10.20;78.63;101484.28;105695;1290;71346;-84
2022/05/07 01:49:43;;;;;;;8.80;4.30;;;;;;;10.16;78.21;101484.88;106196;1286;62526;-83
2022/05/07 01:52:10;;;;;;;8.60;4.80;;;;;;;10.12;78.08;101479.73;105584;1287;62212;-83
2022/05/07 01:54:36;;;;;;;6.50;4.40;;;;;;;10.09;78.42;101482.02;105163;1287;74166;-84
2022/05/07 01:57:03;;;;;;;7.10;4.00;;;;;;;10.05;78.49;101483.66;105062;1287;60462;-82
2022/05/07 01:59:30;;;;;;;5.10;3.50;;;;;;;10.00;78.63;101479.70;105153;1287;70658;-82
2022/05/07 02:01:56;;;;;;;6.70;3.80;;;;;;;9.96;78.57;101481.34;105049;1287;60160;-83
2022/05/07 02:04:23;;;;;;;9.60;5.10;;;;;;;9.94;78.86;101477.31;105227;1287;62101;-82
2022/05/07 02:06:49;;;;;;;6.50;4.50;;;;;;;9.93;78.91;101480.45;105056;1287;62051;-83
2022/05/07 02:09:16;;;;;;;7.20;4.90;;;;;;;9.91;79.05;101480.24;105107;1287;62290;-84
2022/05/07 02:11:42;;;;;;;11.30;5.10;;;;;;;9.90;79.43;101480.37;105104;1287;62393;-83
2022/05/07 02:14:09;;;;;;;7.20;4.20;;;;;;;9.90;79.37;101476.84;105127;1287;62128;-82
2022/05/07 02:16:35;;;;;;;9.10;5.20;;;;;;;9.90;79.46;101473.61;105147;1287;62268;-84
2022/05/07 02:19:02;;;;;;;9.20;4.60;;;;;;;9.92;79.45;101474.72;105018;1287;62109;-82
2022/05/07 02:21:29;;;;;;;7.90;4.80;;;;;;;9.93;79.57;101475.80;105253;1287;62023;-83
2022/05/07 02:23:56;;;;;;;8.70;4.70;;;;;;;9.96;79.69;101476.80;105217;1287;71875;-83
2022/05/07 02:26:22;;;;;;;8.40;5.20;;;;;;;9.98;79.89;101476.08;104882;1287;62023;-83
2022/05/07 02:28:49;;;;;;;7.20;4.70;;;;;;;10.01;79.87;101471.65;105286;1287;62782;-83
2022/05/07 02:31:15;;;;;;;9.10;5.10;;;;;;;10.04;79.69;101477.72;105160;1287;60361;-83
2022/05/07 02:33:42;;;;;;;6.40;4.10;;;;;;;10.06;79.80;101475.91;104824;1287;72619;-83
2022/05/07 02:36:08;;;;;;;8.60;4.50;;;;;;;10.09;79.74;101476.66;104906;1287;62123;-83
2022/05/07 02:38:36;;;;;;;5.70;3.90;;;;;;;10.12;79.85;101478.36;105042;1287;62178;-84
2022/05/07 02:43:51;;;;;;;6.20;4.70;;;;;;;10.15;79.91;101473.23;104766;1287;76992;-83
2022/05/07 02:46:17;;;;;;;7.40;4.30;;;;;;;10.17;79.80;101477.16;105076;1287;62115;-84
2022/05/07 02:48:45;;;;;;;5.60;3.80;;;;;;;10.16;79.74;101475.50;105042;1287;73934;-84
2022/05/07 02:51:13;;;;;;;7.20;4.50;;;;;;;10.15;79.93;101477.55;105039;1287;62838;-83
2022/05/07 02:53:39;;;;;;;6.70;4.50;;;;;;;10.14;80.07;101479.26;105119;1287;62081;-82
2022/05/07 02:56:07;;;;;;;5.30;4.10;;;;;;;10.11;79.87;101478.75;105148;1287;76293;-83
2022/05/07 02:58:33;;;;;;;6.70;4.10;;;;;;;10.09;79.92;101480.46;105094;1287;71264;-83
2022/05/07 03:01:00;;;;;;;8.90;4.70;;;;;;;10.06;80.00;101481.05;105145;1287;74134;-83
2022/05/07 03:03:27;;;;;;;5.30;3.90;;;;;;;10.03;79.72;101479.77;105099;1287;62331;-83
2022/05/07 03:05:55;;;;;;;6.30;4.60;;;;;;;10.00;80.06;101484.16;105159;1287;62284;-82
2022/05/07 03:08:22;;;;;;;7.90;5.20;;;;;;;9.96;80.09;101484.39;105123;1287;77674;-82
2022/05/07 03:10:48;;;;;;;12.70;5.60;;;;;;;9.91;80.37;101484.65;105143;1287;70337;-82
2022/05/07 03:13:15;;;;;;;6.80;4.60;;;;;;;9.89;80.38;101487.94;104896;1287;73051;-84
2022/05/07 03:15:41;;;;;;;7.10;5.00;;;;;;;9.84;80.63;101486.77;105092;1287;62131;-84
2022/05/07 03:18:08;;;;;;;7.50;4.50;;;;;;;9.80;80.46;101483.64;105145;1287;62144;-83
2022/05/07 03:20:35;;;;;;;7.90;5.30;;;;;;;9.75;80.45;101483.77;104996;1287;62098;-82
2022/05/07 03:23:01;;;;;;;9.50;5.30;;;;;;;9.70;80.70;101484.05;104728;1288;72627;-82
2022/05/07 03:25:28;;;;;;;6.90;4.20;;;;;;;9.66;80.98;101482.84;105007;1287;62192;-82
2022/05/07 03:27:54;;;;;;;5.50;4.30;;;;;;;9.63;81.11;101482.45;104971;1287;62177;-82
2022/05/07 03:30:21;;;;;;;7.20;4.70;;;;;;;9.59;80.98;101484.45;104858;1287;62193;-82
2022/05/07 03:32:47;;;;;;;7.00;4.40;;;;;;;9.56;81.10;101487.90;104769;1290;75834;-83
2022/05/07 03:35:14;;;;;;;6.90;5.10;;;;;;;9.52;81.11;101489.17;105141;1287;62201;-84
2022/05/07 03:37:41;;;;;;;6.80;4.40;;;;;;;9.50;81.36;101491.15;105172;1287;72932;-84
2022/05/07 03:40:08;;;;;;;7.40;4.10;;;;;;;9.48;81.62;101492.77;105420;1287;62129;-85
2022/05/07 03:42:34;;;;;;;7.60;4.30;;;;;;;9.46;81.48;101495.98;104850;1287;62083;-84
2022/05/07 03:45:01;;;;;;;11.10;6.50;;;;;;;9.44;81.97;101493.89;105212;1287;60466;-83
2022/05/07 03:47:28;;;;;;;6.70;5.00;;;;;;;9.43;82.14;101493.44;105702;1287;72628;-84
2022/05/07 03:49:55;;;;;;;7.80;4.70;;;;;;;9.42;82.39;101493.30;106147;1287;74413;-83
2022/05/07 03:55:08;;;;;;;8.10;5.60;;;;;;;9.42;82.38;101488.58;106132;1286;61965;-83
2022/05/07 03:57:34;;;;;;;6.30;4.90;;;;;;;9.42;82.57;101490.69;105375;1287;75785;-83
2022/05/07 04:00:01;;;;;;;6.40;4.30;;;;;;;9.42;82.58;101492.48;105319;1287;62080;-83
2022/05/07 04:02:32;;;;;;;10.50;6.60;;;;;;;9.41;82.74;101493.39;105106;1288;72956;-82
2022/05/07 04:04:58;;;;;;;10.10;5.40;;;;;;;9.41;82.51;101495.58;105128;1287;63343;-82
2022/05/07 04:07:25;;;;;;;8.70;4.70;;;;;;;9.41;82.50;101505.64;104879;1287;62309;-82
2022/05/07 04:09:54;;;;;;;7.30;4.80;;;;;;;9.40;82.62;101502.74;105433;1287;62131;-83
2022/05/07 04:12:22;;;;;;;7.80;5.60;;;;;;;9.41;82.81;101498.95;105714;1287;72227;-83
2022/05/07 04:14:49;;;;;;;8.30;5.40;;;;;;;9.41;82.72;101504.02;106006;1285;74429;-83
2022/05/07 04:17:15;;;;;;;7.80;5.20;;;;;;;9.43;82.71;101506.19;106090;1287;63414;-83
2022/05/07 04:19:42;;;;;;;7.90;5.60;;;;;;;9.44;82.94;101502.73;105938;1286;60670;-83
2022/05/07 04:22:08;;;;;;;9.20;6.10;;;;;;;9.48;83.58;101501.80;106089;1287;60604;-82
2022/05/07 04:24:36;;;;;;;9.50;5.90;;;;;;;9.54;83.50;101499.95;105895;1288;61238;-83
2022/05/07 04:27:03;;;;;;;7.10;4.80;;;;;;;9.60;83.42;101503.04;105983;1287;72991;-83
2022/05/07 04:29:30;;;;;;;6.70;4.90;;;;;;;9.68;83.62;101504.91;105949;1287;63502;-83
2022/05/07 04:31:56;;;;;;;6.20;4.40;;;;;;;9.76;83.29;101499.17;106274;1287;62080;-83
2022/05/07 04:34:23;;;;;;;7.00;4.50;;;;;;;9.86;83.31;101504.84;106487;1288;59856;-83
2022/05/07 04:36:50;;;;;;;8.30;5.40;;;;;;;9.94;83.14;101505.18;106885;1287;71633;-83
2022/05/07 04:39:16;;;;;;;9.30;5.50;;;;;;;10.04;82.90;101506.88;106851;1287;59884;-83
2022/05/07 04:41:43;;;;;;;8.30;5.40;;;;;;;10.15;82.67;101508.45;106800;1287;60243;-83
2022/05/07 04:44:09;;;;;;;10.70;6.90;;;;;;;10.26;82.46;101505.77;106761;1286;60430;-84
2022/05/07 04:46:36;;;;;;;8.10;5.60;;;;;;;10.36;82.31;101505.69;106402;1287;63286;-83
2022/05/07 04:49:02;;;;;;;8.40;5.00;;;;;;;10.46;81.85;101508.48;106793;1287;60009;-83
2022/05/07 04:51:29;;;;;;;6.60;4.50;;;;;;;10.56;81.76;101508.83;105160;1287;62627;-82
2022/05/07 04:54:10;;;;;;;7.30;5.10;;;;;;;10.68;81.26;101512.05;105119;1288;62316;-84
2022/05/07 04:56:37;;;;;;;6.10;4.80;;;;;;;10.79;81.11;101514.14;105062;1288;62021;-84
2022/05/07 04:59:04;;;;;;;7.90;5.80;;;;;;;10.91;80.51;101507.62;105078;1288;62025;-83
2022/05/07 05:01:30;;;;;;;8.30;5.40;;;;;;;11.03;80.31;101511.48;105164;1287;71444;-84
2022/05/07 05:03:57;;;;;;;7.80;4.70;;;;;;;11.17;79.85;101511.88;105134;1287;73385;-83
2022/05/07 05:06:23;;;;;;;7.80;5.50;;;;;;;11.31;79.56;101509.27;104975;1287;60172;-82
2022/05/07 05:08:50;;;;;;;7.10;5.00;;;;;;;11.44;79.00;101514.70;105258;1287;61287;-83
2022/05/07 05:11:17;;;;;;;6.40;4.00;;;;;;;11.57;78.72;101513.49;105041;1288;62034;-84
2022/05/07 05:13:43;;;;;;;6.90;4.30;;;;;;;11.68;78.02;101513.20;105426;1287;72381;-83
2022/05/07 05:16:10;;;;;;;9.50;5.20;;;;;;;11.80;77.34;101513.56;105247;1287;62024;-82
2022/05/07 05:18:36;;;;;;;7.20;5.30;;;;;;;11.91;76.72;101518.30;105055;1288;63249;-82
2022/05/07 05:21:06;;;;;;;7.40;5.10;;;;;;;12.03;76.72;101517.89;105248;1287;62014;-84
2022/05/07 05:23:33;;;;;;;6.10;4.30;;;;;;;12.16;76.11;101525.52;105369;1287;76822;-83
2022/05/07 05:25:59;;;;;;;5.80;4.50;;;;;;;12.28;76.11;101527.41;105232;1287;62129;-83
2022/05/07 05:28:26;;;;;;;5.30;4.00;;;;;;;12.39;75.59;101522.04;105397;1286;61991;-82
2022/05/07 05:30:57;;;;;;;9.60;5.10;;;;;;;12.49;75.18;101525.48;105135;1287;62029;-82
2022/05/07 05:33:24;;;;;;;6.30;4.30;;;;;;;12.62;75.14;101530.11;105205;1287;62135;-83
2022/05/07 05:35:51;;;;;;;7.00;4.60;;;;;;;12.76;74.74;101532.90;105108;1287;60481;-84
2022/05/07 05:38:18;;;;;;;10.20;4.80;;;;;;;12.87;74.17;101530.57;104994;1287;71518;-82
2022/05/07 05:40:44;;;;;;;5.60;4.10;;;;;;;12.97;73.67;101533.20;105115;1287;73063;-82
2022/05/07 05:43:12;;;;;;;6.00;4.50;;;;;;;13.07;73.30;101532.33;105485;1287;61959;-82
2022/05/07 05:45:38;;;;;;;6.90;4.30;;;;;;;13.14;72.81;101530.55;105263;1287;63364;-82
2022/05/07 05:48:05;;;;;;;8.20;5.50;;;;;;;13.20;72.01;101529.81;105298;1287;76992;-82
2022/05/07 05:50:32;;;;;;;7.00;4.70;;;;;;;13.23;71.46;101533.70;105325;1287;71049;-83
2022/05/07 05:52:59;;;;;;;6.70;4.00;;;;;;;13.23;71.16;101534.06;105195;1288;74126;-83
2022/05/07 05:55:25;;;;;;;6.70;4.00;;;;;;;13.23;71.11;101534.73;105416;1287;64538;-83
2022/05/07 05:57:52;;;;;;;5.80;4.30;;;;;;;13.26;71.56;101537.12;105270;1287;61621;-82
2022/05/07 06:00:19;;;;;;;8.10;4.50;;;;;;;13.33;71.50;101540.25;105340;1287;76868;-83
2022/05/07 06:02:46;;;;;;;8.10;4.60;;;;;;;13.39;71.33;101537.84;105175;1287;71623;-84
2022/05/07 06:05:13;;;;;;;7.30;4.80;;;;;;;13.47;71.24;101541.48;105344;1287;74246;-84
2022/05/07 06:07:40;;;;;;;6.00;4.80;;;;;;;13.56;70.44;101542.66;105203;1287;63094;-83
2022/05/07 06:10:07;;;;;;;8.00;4.30;;;;;;;13.63;70.11;101540.30;105339;1287;60133;-84
2022/05/07 06:12:34;;;;;;;6.30;4.10;;;;;;;13.73;69.99;101542.02;105269;1287;77342;-84
2022/05/07 06:15:01;;;;;;;9.80;4.50;;;;;;;13.81;69.83;101544.00;104968;1288;72417;-84
2022/05/07 06:17:28;;;;;;;6.80;4.40;;;;;;;13.94;69.72;101540.68;105193;1287;73456;-84
2022/05/07 06:19:54;;;;;;;5.40;3.90;;;;;;;14.03;69.34;101536.10;105306;1287;62221;-83
2022/05/07 06:22:22;;;;;;;6.10;3.90;;;;;;;14.12;69.18;101543.58;104966;1288;61948;-84
2022/05/07 06:27:34;;;;;;;9.00;4.70;;;;;;;14.26;68.73;101547.91;105269;1287;71704;-83
2022/05/07 06:30:02;;;;;;;7.40;4.00;;;;;;;14.30;68.90;101551.41;105256;1287;72648;-83
2022/05/07 06:32:31;;;;;;;5.50;4.10;;;;;;;14.37;69.10;101553.64;105119;1287;62297;-82
2022/05/07 06:34:58;;;;;;;8.40;5.00;;;;;;;14.46;69.16;101555.14;107156;1286;60697;-83
2022/05/07 06:37:25;;;;;;;8.10;4.30;;;;;;;14.54;69.23;101552.73;106827;1286;74802;-83
2022/05/07 06:39:52;;;;;;;7.20;4.90;;;;;;;14.65;69.31;101556.23;105501;1287;72624;-84
2022/05/07 06:42:18;;;;;;;6.70;4.30;;;;;;;14.79;68.98;101556.17;105614;1287;62156;-83
2022/05/07 06:44:45;;;;;;;6.00;4.00;;;;;;;14.93;68.78;101558.35;105328;1288;62134;-84
2022/05/07 06:47:12;;;;;;;8.00;4.60;;;;;;;15.08;68.45;101558.16;105406;1287;61979;-84
2022/05/07 06:49:38;;;;;;;7.20;3.80;;;;;;;15.22;67.87;101558.55;106210;1287;60723;-83
2022/05/07 06:52:05;;;;;;;6.20;3.90;;;;;;;15.35;67.39;101559.85;106757;1286;70455;-83
2022/05/07 06:54:32;;;;;;;5.90;4.20;;;;;;;15.47;67.26;101557.46;106699;1287;72615;-82
2022/05/07 06:56:58;;;;;;;6.80;4.60;;;;;;;15.60;67.44;101559.48;106839;1287;59929;-83
2022/05/07 06:59:25;;;;;;;5.80;3.70;;;;;;;15.75;66.76;101559.27;106992;1287;59936;-85
2022/05/07 07:01:54;;;;;;;6.80;4.40;;;;;;;15.85;66.30;101565.27;107059;1287;75940;-85
2022/05/07 07:04:21;;;;;;;10.50;5.10;;;;;;;15.93;65.93;101568.97;107235;1287;71308;-85
2022/05/07 07:06:49;;;;;;;5.50;3.90;;;;;;;16.04;65.73;101573.92;107217;1287;74687;-84
2022/05/07 07:09:16;;;;;;;6.10;4.50;;;;;;;16.16;65.24;101574.42;107164;1287;61385;-85
2022/05/07 07:11:43;;;;;;;7.40;4.60;;;;;;;16.26;64.81;101573.13;106120;1287;62228;-85
2022/05/07 07:14:10;;;;;;;7.80;5.00;;;;;;;16.36;64.23;101570.60;105549;1287;76261;-85
2022/05/07 07:16:36;;;;;;;6.10;4.20;;;;;;;16.45;63.73;101570.37;105523;1286;72951;-85
2022/05/07 07:19:04;;;;;;;7.70;4.30;;;;;;;16.58;63.67;101572.66;105456;1287;60152;-85
2022/05/07 07:21:30;;;;;;;8.80;4.90;;;;;;;16.69;63.00;101575.65;105585;1287;62028;-85
2022/05/07 07:23:59;;;;;;;5.40;4.00;;;;;;;16.82;63.27;101575.11;105487;1287;62661;-85
2022/05/07 07:26:26;;;;;;;4.40;3.00;;;;;;;16.98;62.93;101575.02;105299;1287;74543;-85
2022/05/07 07:28:53;;;;;;;9.40;4.90;;;;;;;17.12;62.25;101576.06;105272;1287;74052;-84
2022/05/07 07:31:19;;;;;;;8.90;5.40;;;;;;;17.22;62.00;101579.55;105277;1288;72975;-85
2022/05/07 07:33:46;;;;;;;8.10;4.50;;;;;;;17.40;62.01;101578.11;105302;1287;62020;-85
2022/05/07 07:36:13;;;;;;;7.20;5.60;;;;;;;17.53;60.71;101583.37;105636;1287;61895;-84
2022/05/07 07:38:39;;;;;;;7.10;5.20;;;;;;;17.59;60.12;101580.27;105479;1287;77088;-84
2022/05/07 07:41:07;;;;;;;9.60;5.40;;;;;;;17.68;60.12;101579.77;105629;1287;71352;-84
2022/05/07 07:43:35;;;;;;;15.10;5.60;;;;;;;17.86;59.86;101574.98;105646;1287;73158;-84
2022/05/07 07:48:47;;;;;;;7.00;5.40;;;;;;;18.36;58.56;101574.82;105354;1287;60799;-85
2022/05/07 07:51:13;;;;;;;9.20;5.30;;;;;;;18.45;57.18;101572.01;105623;1286;62087;-84
2022/05/07 07:53:42;;;;;;;8.70;6.10;;;;;;;18.55;57.34;101572.35;105638;1287;71672;-84
2022/05/07 07:56:08;;;;;;;7.30;5.30;;;;;;;18.67;57.03;101575.15;105564;1287;74431;-84
2022/05/07 07:58:35;;;;;;;9.50;5.50;;;;;;;18.81;57.21;101575.30;105402;1287;61927;-85
2022/05/07 08:01:02;;;;;;;9.50;6.50;;;;;;;18.90;56.53;101576.79;105577;1287;62116;-85
2022/05/07 08:03:35;;;;;;;9.00;5.70;;;;;;;18.92;55.82;101579.39;106369;1287;76577;-84
2022/05/07 08:06:01;;;;;;;8.40;6.30;;;;;;;18.94;56.39;101575.38;106648;1287;72342;-85
2022/05/07 08:14:04;;;;;;;7.20;5.40;;;;;;;19.07;55.61;101576.52;105425;1287;60635;-85
2022/05/07 08:16:31;;;;;;;8.00;4.80;;;;;;;19.07;55.47;101575.48;105594;1287;75731;-85
2022/05/07 08:18:58;;;;;;;10.80;5.00;;;;;;;19.09;55.86;101578.00;105351;1288;71060;-84
2022/05/07 08:21:24;;;;;;;9.70;4.70;;;;;;;19.17;55.43;101578.65;105520;1287;72932;-85
2022/05/07 08:23:51;;;;;;;8.60;5.10;;;;;;;19.26;55.27;101578.63;105347;1287;62026;-85
2022/05/07 08:26:18;;;;;;;6.80;4.90;;;;;;;19.44;55.56;101575.74;105295;1288;60576;-84
2022/05/07 08:28:45;;;;;;;8.60;5.20;;;;;;;19.60;54.61;101576.40;105370;1287;75791;-85
2022/05/07 08:31:12;;;;;;;8.70;5.30;;;;;;;19.72;54.54;101576.25;105496;1287;71499;-84
2022/05/07 08:33:42;;;;;;;8.80;5.40;;;;;;;19.82;54.32;101574.02;105251;1288;72946;-84
2022/05/07 08:36:11;;;;;;;9.20;5.70;;;;;;;19.87;53.80;101570.47;105173;1288;62084;-84
2022/05/07 08:38:39;;;;;;;9.40;6.30;;;;;;;19.96;53.77;101573.86;105322;1288;61949;-85
2022/05/07 08:41:05;;;;;;;7.90;5.30;;;;;;;20.07;53.41;101575.24;106680;1288;75447;-84
2022/05/07 08:43:37;;;;;;;8.00;5.30;;;;;;;20.16;53.33;101576.05;105320;1287;71215;-84
2022/05/07 08:46:16;;;;;;;7.30;5.30;;;;;;;20.26;53.16;101577.59;105569;1287;71758;-84
2022/05/07 08:48:46;;;;;;;9.00;6.80;;;;;;;20.35;53.32;101578.91;105430;1287;63714;-84
2022/05/07 08:51:15;;;;;;;16.80;11.40;;;;;;;20.39;52.93;101578.72;105460;1287;60999;-84
2022/05/07 08:53:43;;;;;;;7.10;5.00;;;;;;;20.42;53.01;101579.41;105690;1287;76938;-84
2022/05/07 08:56:11;;;;;;;9.90;5.10;;;;;;;20.44;53.54;101575.73;105292;1287;71442;-83
2022/05/07 08:58:38;;;;;;;9.70;5.60;;;;;;;20.50;53.98;101575.77;105124;1287;74700;-83
2022/05/07 09:01:08;;;;;;;9.60;6.20;;;;;;;20.61;52.72;101574.27;105152;1288;62100;-84
2022/05/07 09:03:41;;;;;;;7.60;5.70;;;;;;;20.72;52.79;101578.42;105410;1287;61949;-84
2022/05/07 09:06:22;;;;;;;7.60;5.10;;;;;;;20.80;51.84;101579.48;105503;1287;75801;-84
2022/05/07 09:08:50;;;;;;;6.00;4.20;;;;;;;20.93;51.81;101577.13;105555;1287;71473;-83
2022/05/07 09:11:17;;;;;;;10.40;6.20;;;;;;;21.05;51.50;101579.54;105512;1287;74615;-83
2022/05/07 09:13:45;;;;;;;9.60;5.00;;;;;;;21.11;51.86;101576.95;105302;1287;62110;-82
2022/05/07 09:16:13;;;;;;;10.50;6.80;;;;;;;21.07;50.83;101578.48;105460;1287;62116;-84
2022/05/07 09:18:47;;;;;;;7.50;5.10;;;;;;;21.07;51.10;101576.65;106159;1286;77165;-84
2022/05/07 09:21:16;;;;;;;8.00;5.30;;;;;;;21.19;50.76;101574.79;105232;1288;70877;-84
2022/05/07 09:23:48;;;;;;;11.00;7.90;;;;;;;21.35;50.58;101573.87;105179;1287;74886;-83
2022/05/07 09:26:29;;;;;;;8.90;5.80;;;;;;;21.50;49.93;101575.62;104970;1287;62135;-84
2022/05/07 09:28:56;;;;;;;7.60;4.50;;;;;;;21.65;49.10;101578.95;105167;1287;61652;-83
2022/05/07 09:31:24;;;;;;;8.20;5.10;;;;;;;21.73;48.56;101575.30;105326;1287;75734;-83
2022/05/07 09:33:50;;;;;;;8.90;4.70;;;;;;;21.92;48.48;101574.55;105094;1287;71353;-84
2022/05/07 09:36:17;;;;;;;7.80;5.50;;;;;;;22.11;46.88;101577.42;104988;1287;74027;-82
2022/05/07 09:38:44;;;;;;;6.80;5.10;;;;;;;22.28;46.33;101570.39;105250;1287;62190;-83
2022/05/07 09:41:20;;;;;;;12.20;7.80;;;;;;;22.26;45.54;101573.68;104750;1288;667248;-84
2022/05/07 09:43:51;;;;;;;7.90;5.00;;;;;;;22.26;45.88;101570.23;105115;1287;77306;-83
2022/05/07 09:46:19;;;;;;;9.00;4.20;;;;;;;22.31;45.58;101569.52;105305;1287;70305;-84
2022/05/07 09:48:46;;;;;;;8.10;4.90;;;;;;;22.38;45.93;101566.52;105128;1287;73861;-84
2022/05/07 09:51:13;;;;;;;11.50;4.70;;;;;;;22.48;46.89;101565.47;105158;1287;61827;-85
2022/05/07 09:59:13;;;;;;;9.70;5.50;;;;;;;22.95;44.58;101557.86;105282;1287;71459;-85
2022/05/07 10:01:55;;;;;;;11.30;6.30;;;;;;;22.95;43.46;101559.04;105362;1287;73249;-85
2022/05/07 10:04:46;;;;;;;9.30;6.20;;;;;;;22.86;43.54;101555.98;105781;1287;60741;-84
2022/05/07 10:07:26;;;;;;;6.10;4.00;;;;;;;22.87;43.60;101555.73;106611;1287;61965;-84
2022/05/07 10:10:17;;;;;;;9.60;5.80;;;;;;;22.99;43.34;101554.39;106720;1286;75792;-84
2022/05/07 10:12:45;;;;;;;8.90;6.00;;;;;;;22.96;43.29;101552.31;106853;1287;71555;-85
2022/05/07 10:15:20;;;;;;;8.60;5.90;;;;;;;22.91;43.73;101552.31;106168;1288;72877;-84
2022/05/07 10:17:56;;;;;;;;;;;;;;;23.03;44.05;101549.66;105185;1289;62906;-83
2022/05/07 10:20:23;;;;;;;5.00;3.20;;;;;;;23.23;44.00;101551.08;105149;1288;62017;-83
2022/05/07 10:22:56;;;;;;;7.70;5.40;;;;;;;23.23;42.90;101552.74;105254;1287;62328;-83
2022/05/07 10:25:23;;;;;;;9.80;6.10;;;;;;;23.32;43.17;101549.59;105029;1288;71633;-83
2022/05/07 10:27:51;;;;;;;8.50;5.60;;;;;;;23.34;42.08;101549.84;105122;1287;60119;-83
2022/05/07 10:30:21;;;;;;;5.90;4.50;;;;;;;23.33;42.45;101547.05;105065;1288;62580;-83
2022/05/07 10:33:04;;;;;;;7.30;5.10;;;;;;;23.19;42.14;101544.92;105186;1287;60669;-83
2022/05/07 10:35:53;;;;;;;7.90;5.00;;;;;;;23.06;42.33;101537.36;105178;1287;77115;-83
2022/05/07 10:38:23;;;;;;;10.90;6.70;;;;;;;23.07;42.61;101538.73;105347;1287;70382;-83
2022/05/07 10:40:58;;;;;;;8.90;6.60;;;;;;;23.10;42.00;101534.08;105240;1287;72559;-83
2022/05/07 10:43:35;;;;;;;14.90;8.70;;;;;;;23.18;42.51;101533.17;104836;1288;62215;-83
2022/05/07 10:46:13;;;;;;;9.20;6.40;;;;;;;23.25;42.34;101531.42;104882;1288;63534;-83
2022/05/07 10:48:56;;;;;;;10.00;6.40;;;;;;;23.21;41.26;101530.46;105058;1287;77050;-83
2022/05/07 10:51:37;;;;;;;9.30;5.70;;;;;;;23.05;42.14;101528.77;105066;1288;70420;-83
2022/05/07 10:54:18;;;;;;;8.90;6.00;;;;;;;22.89;42.05;101528.88;105108;1288;74094;-83
2022/05/07 10:56:53;;;;;;;12.10;6.20;;;;;;;22.72;42.18;101529.70;105172;1287;62097;-83
2022/05/07 10:59:20;;;;;;;;;;;;;;;22.61;42.23;101526.52;105052;1288;61990;-83
2022/05/07 11:01:48;;;;;;;8.10;5.60;;;;;;;22.65;42.23;101523.74;105053;1287;74779;-84
2022/05/07 11:04:18;;;;;;;10.60;5.40;;;;;;;22.87;42.64;101521.48;104812;1288;72877;-83
2022/05/07 11:06:47;;;;;;;7.30;5.50;;;;;;;23.06;41.53;101517.81;104709;1288;72218;-83
2022/05/07 11:09:25;;;;;;;9.90;5.70;;;;;;;23.21;40.69;101519.09;105081;1288;62112;-83
2022/05/07 11:11:56;;;;;;;6.20;5.10;;;;;;;23.28;41.10;101517.78;105071;1287;62080;-84
2022/05/07 11:14:35;;;;;;;9.20;4.80;;;;;;;23.41;41.37;101513.44;105220;1287;76813;-83
2022/05/07 11:17:04;;;;;;;7.60;5.20;;;;;;;23.35;40.92;101521.48;105119;1287;71513;-83
2022/05/07 11:19:33;;;;;;;9.10;5.40;;;;;;;23.20;41.27;101514.94;105107;1287;73971;-83
2022/05/07 11:22:01;;;;;;;8.40;5.10;;;;;;;23.00;41.40;101518.00;105123;1287;60639;-83
2022/05/07 11:24:30;;;;;;;8.20;4.80;;;;;;;22.73;41.33;101521.34;105695;1287;62280;-83
2022/05/07 11:27:02;;;;;;;7.10;4.90;;;;;;;22.52;41.41;101516.89;107152;1287;77284;-83
2022/05/07 11:29:29;;;;;;;8.30;5.90;;;;;;;22.58;42.09;101515.09;107154;1287;71591;-83
2022/05/07 11:32:07;;;;;;;10.30;6.30;;;;;;;22.78;41.92;101513.98;106900;1287;74260;-84
2022/05/07 11:34:35;;;;;;;9.00;5.50;;;;;;;23.07;41.97;101507.70;107105;1287;59910;-83
2022/05/07 11:37:23;;;;;;;8.10;5.40;;;;;;;23.38;41.28;101507.47;106276;1287;60478;-83
2022/05/07 11:39:53;;;;;;;8.30;5.00;;;;;;;23.61;41.04;101505.15;104975;1288;75802;-83
2022/05/07 11:42:28;;;;;;;7.50;4.20;;;;;;;23.89;41.19;101501.18;104923;1288;71414;-83
2022/05/07 11:45:31;;;;;;;5.40;4.50;;;;;;;24.27;39.42;101498.45;105087;1288;74977;-83
2022/05/07 11:47:59;;;;;;;7.80;5.00;;;;;;;24.59;38.65;101499.83;105281;1287;62179;-83
2022/05/07 11:50:32;;;;;;;5.70;3.60;;;;;;;24.85;36.59;101502.75;105142;1287;61932;-83
2022/05/07 11:53:29;;;;;;;4.40;3.00;;;;;;;24.90;33.26;101499.56;106784;1288;76952;-84